Time;durP1;ratioP1;P1;durP2;ratioP2;P2;SDS_P1;SDS_P2;PMS_P1;PMS_P2;Temp;Humidity;BMP_temperature;BMP_pressure;BME280_temperature;BME280_humidity;BME280_pressure;Samples;Min_cycle;Max_cycle;Signal;HPM_P1;HPM_P2
2022/01/24 00:07:50;;;;;;;17.42;10.27;;;;;;;4.66;89.67;100639.34;4918971;29;20047;-85
2022/01/24 00:10:20;;;;;;;16.60;10.77;;;;;;;4.65;89.69;100642.16;4903325;29;20028;-86
2022/01/24 00:13:06;;;;;;;17.90;10.88;;;;;;;4.61;89.69;100638.19;4884185;29;20518;-87
2022/01/24 00:18:28;;;;;;;17.70;11.35;;;;;;;4.46;89.66;100609.75;4876470;29;20091;-89
2022/01/24 00:26:46;;;;;;;16.90;11.15;;;;;;;4.64;89.59;100633.38;4877087;29;20108;-88
2022/01/24 00:29:22;;;;;;;20.15;11.55;;;;;;;4.63;89.96;100633.56;4890061;29;20033;-88
2022/01/24 00:31:48;;;;;;;19.33;12.02;;;;;;;4.59;89.63;100626.97;4871291;29;20032;-88
2022/01/24 00:34:15;;;;;;;19.48;10.80;;;;;;;4.64;89.54;100636.03;4887521;29;20037;-89
2022/01/24 00:36:42;;;;;;;18.30;12.20;;;;;;;4.67;89.75;100633.06;4887450;29;20092;-88
2022/01/24 00:39:08;;;;;;;18.00;10.95;;;;;;;4.64;89.36;100627.25;4902430;29;20457;-88
2022/01/24 00:47:00;;;;;;;21.83;12.77;;;;;;;4.66;89.57;100638.50;4872676;29;20092;-87
2022/01/24 00:54:54;;;;;;;18.95;11.98;;;;;;;4.65;90.11;100634.22;4889445;29;20043;-90
2022/01/24 00:57:21;;;;;;;22.05;13.02;;;;;;;4.48;90.00;100606.94;4903067;29;20040;-90
2022/01/24 00:59:47;;;;;;;20.95;11.73;;;;;;;4.65;89.93;100642.16;4871956;29;20028;-90
2022/01/24 01:02:13;;;;;;;18.98;11.55;;;;;;;4.67;89.93;100641.00;4886452;29;20028;-87
2022/01/24 01:18:16;;;;;;;18.42;10.52;;;;;;;4.59;89.89;100622.47;4889350;29;20134;-88
2022/01/24 01:23:33;;;;;;;19.90;12.40;;;;;;;4.64;90.29;100636.03;4903172;29;20558;-88
2022/01/24 01:26:03;;;;;;;18.02;10.77;;;;;;;4.64;90.09;100640.50;4901475;29;20040;-88
2022/01/24 01:28:30;;;;;;;20.42;13.40;;;;;;;4.52;90.24;100618.88;4885998;29;20039;-87
2022/01/24 01:31:02;;;;;;;21.75;12.43;;;;;;;4.60;89.51;100637.38;4887059;29;20033;-87
2022/01/24 01:33:39;;;;;;;20.75;12.93;;;;;;;4.65;89.89;100642.16;4856739;29;20032;-87
2022/01/24 01:39:01;;;;;;;21.73;12.18;;;;;;;4.66;89.96;100634.03;4887466;29;20115;-87
2022/01/24 01:55:36;;;;;;;20.35;12.77;;;;;;;4.63;90.04;100615.84;4874499;29;20028;-89
2022/01/24 01:58:15;;;;;;;20.50;11.55;;;;;;;4.62;89.42;100621.31;4886851;29;20040;-90
2022/01/24 02:00:46;;;;;;;19.27;11.85;;;;;;;4.63;89.76;100615.84;4884996;29;20410;-89
2022/01/24 02:03:13;;;;;;;16.95;10.85;;;;;;;4.44;90.02;100577.38;4900032;29;20430;-89
2022/01/24 02:05:39;;;;;;;18.98;11.57;;;;;;;4.63;89.95;100612.41;4893900;29;20036;-90
2022/01/24 02:08:05;;;;;;;20.23;12.45;;;;;;;4.64;89.78;100614.88;4885480;29;20029;-89
2022/01/24 02:10:34;;;;;;;19.98;12.18;;;;;;;4.65;90.12;100613.06;4885683;29;20042;-89
2022/01/24 02:25:59;;;;;;;19.98;12.02;;;;;;;3.83;89.36;100492.53;4908052;29;20085;-91
2022/01/24 02:28:31;;;;;;;22.55;13.50;;;;;;;4.64;89.56;100629.91;4881852;29;20115;-90
2022/01/24 02:31:20;;;;;;;19.48;11.85;;;;;;;4.22;89.46;100564.00;4890093;29;20026;-92
2022/01/24 02:33:48;;;;;;;20.08;11.45;;;;;;;4.28;89.76;100576.56;4897188;29;20024;-90
2022/01/24 02:36:24;;;;;;;23.98;13.20;;;;;;;4.28;89.51;100572.09;4895053;29;20035;-90
2022/01/24 02:49:48;;;;;;;20.10;11.82;;;;;;;4.61;89.87;100623.13;4893607;29;20074;-90
2022/01/24 02:52:14;;;;;;;23.50;12.02;;;;;;;4.03;89.58;100530.81;4896190;29;20044;-90
2022/01/24 02:54:41;;;;;;;18.02;11.48;;;;;;;4.64;89.41;100628.09;4889057;29;20491;-91
2022/01/24 02:57:10;;;;;;;19.63;12.15;;;;;;;3.52;89.66;100441.34;4874979;29;20471;-91
2022/01/24 02:59:36;;;;;;;20.70;11.18;;;;;;;3.94;89.52;100528.34;4893102;29;20071;-91
2022/01/24 03:02:05;;;;;;;24.23;12.32;;;;;;;3.56;89.14;100453.25;4881243;29;20032;-90
2022/01/24 03:04:31;;;;;;;21.05;12.00;;;;;;;4.06;89.18;100527.03;4897526;29;20071;-90
2022/01/24 03:06:57;;;;;;;20.98;11.77;;;;;;;4.65;89.54;100623.66;4886696;29;20123;-91
2022/01/24 03:09:23;;;;;;;21.85;12.00;;;;;;;3.96;89.79;100511.34;4916304;29;20443;-91
2022/01/24 03:12:08;;;;;;;20.13;12.00;;;;;;;4.65;89.68;100627.13;4884234;29;20127;-90
2022/01/24 03:14:36;;;;;;;20.55;12.38;;;;;;;4.16;89.66;100535.59;4897163;29;20060;-92
2022/01/24 03:17:04;;;;;;;19.45;11.95;;;;;;;4.04;89.64;100524.53;4883489;29;20044;-90
2022/01/24 03:19:30;;;;;;;19.38;11.57;;;;;;;3.58;89.41;100436.22;4892905;29;20414;-90
2022/01/24 03:21:55;;;;;;;22.83;13.40;;;;;;;4.20;89.29;100545.69;4892470;29;20064;-91
2022/01/24 03:24:21;;;;;;;22.73;12.93;;;;;;;4.19;89.21;100530.84;4890683;29;20043;-90
2022/01/24 03:26:47;;;;;;;22.17;12.38;;;;;;;4.04;89.43;100513.97;4892910;29;20024;-90
2022/01/24 03:29:13;;;;;;;18.55;11.63;;;;;;;3.65;89.36;100446.97;4890290;29;20064;-90
2022/01/24 03:31:39;;;;;;;20.92;13.50;;;;;;;3.87;89.53;100475.34;4898100;29;20016;-89
2022/01/24 03:34:05;;;;;;;22.27;12.35;;;;;;;4.22;89.27;100540.22;4891028;29;20036;-89
2022/01/24 03:36:32;;;;;;;20.95;11.32;;;;;;;4.05;89.80;100520.09;4889807;29;20483;-89
2022/01/24 03:38:58;;;;;;;22.38;12.75;;;;;;;3.54;89.41;100419.06;4888241;29;20111;-90
2022/01/24 03:41:23;;;;;;;21.15;13.15;;;;;;;3.58;89.71;100441.50;4899639;29;20031;-89
2022/01/24 03:43:48;;;;;;;20.13;11.32;;;;;;;4.13;89.26;100535.97;4899338;29;20038;-90
2022/01/24 03:48:50;;;;;;;21.63;12.57;;;;;;;4.62;89.35;100616.03;4899304;29;20039;-89
2022/01/24 03:51:17;;;;;;;23.80;13.40;;;;;;;4.61;90.29;100617.84;4893008;29;20032;-89
2022/01/24 03:53:52;;;;;;;22.42;12.48;;;;;;;4.13;89.48;100539.41;4883919;29;20067;-90
2022/01/24 03:56:19;;;;;;;20.63;12.23;;;;;;;4.04;89.84;100516.59;4886583;29;20024;-90
2022/01/24 03:58:45;;;;;;;20.67;11.90;;;;;;;4.35;89.57;100559.03;4906266;29;20502;-89
2022/01/24 04:01:14;;;;;;;20.88;12.45;;;;;;;4.60;89.57;100596.88;4898610;29;20064;-91
2022/01/24 04:03:40;;;;;;;19.35;10.90;;;;;;;4.18;89.44;100525.69;4890116;29;20029;-90
2022/01/24 04:06:07;;;;;;;28.35;14.02;;;;;;;3.50;89.40;100419.56;4909660;29;20031;-90
2022/01/24 04:08:32;;;;;;;22.00;12.75;;;;;;;4.59;89.27;100595.22;4888414;29;20076;-89
2022/01/24 04:10:58;;;;;;;22.83;12.68;;;;;;;4.07;90.10;100505.72;4895914;29;20028;-89
2022/01/24 04:18:55;;;;;;;25.77;14.20;;;;;;;4.03;89.71;100500.94;4897171;29;20029;-90
2022/01/24 04:23:59;;;;;;;24.38;13.82;;;;;;;3.48;89.29;100411.00;4913510;29;20025;-90
2022/01/24 04:26:27;;;;;;;22.08;12.52;;;;;;;4.26;89.99;100538.94;4884314;29;20028;-91
2022/01/24 04:28:53;;;;;;;22.10;12.73;;;;;;;4.59;89.79;100597.88;4886022;29;20042;-90
2022/01/24 04:31:18;;;;;;;25.95;13.70;;;;;;;4.35;89.27;100548.47;4884940;29;20393;-89
2022/01/24 04:33:44;;;;;;;25.50;15.85;;;;;;;4.61;89.70;100598.53;4886394;29;20035;-90
2022/01/24 04:36:10;;;;;;;21.30;11.95;;;;;;;4.00;89.74;100488.06;4889304;29;20593;-90
2022/01/24 04:38:35;;;;;;;29.50;14.43;;;;;;;3.27;89.79;100371.09;4896014;29;20427;-91
2022/01/24 04:41:05;;;;;;;27.20;14.10;;;;;;;4.59;90.22;100598.69;4907225;29;20036;-90
2022/01/24 04:46:08;;;;;;;24.98;14.65;;;;;;;4.34;88.86;100554.75;4907943;29;20029;-90
2022/01/24 04:51:40;;;;;;;21.10;12.15;;;;;;;3.50;89.61;100411.66;4913218;29;20043;-91
2022/01/24 04:56:37;;;;;;;24.80;14.13;;;;;;;4.61;89.40;100594.03;4902436;29;20029;-91
2022/01/24 04:59:05;;;;;;;24.63;13.43;;;;;;;3.73;89.53;100453.06;4905352;29;20418;-91
2022/01/24 05:01:31;;;;;;;23.70;13.15;;;;;;;3.67;89.69;100440.53;4878876;29;20123;-92
2022/01/24 05:03:59;;;;;;;23.38;12.80;;;;;;;3.83;89.49;100476.66;4893368;29;20124;-93
2022/01/24 05:06:26;;;;;;;22.23;12.68;;;;;;;3.94;89.25;100488.72;4887249;29;20379;-91
2022/01/24 05:08:54;;;;;;;24.25;14.07;;;;;;;4.62;90.06;100616.88;4895573;29;20042;-91
2022/01/24 05:11:35;;;;;;;22.77;13.02;;;;;;;4.63;89.33;100604.47;4902616;29;20016;-91
2022/01/24 05:24:44;;;;;;;24.20;13.40;;;;;;;3.90;89.90;100490.88;4906026;29;20031;-92
2022/01/24 05:27:47;;;;;;;;;;;;;;;;;;;;;
2022/01/24 05:30:28;;;;;;;25.00;14.65;;;;;;;4.21;89.38;100549.16;4896740;29;20038;-94
2022/01/24 06:01:11;;;;;;;27.33;15.13;;;;;;;4.62;90.11;100597.53;4916184;29;20302;-87
2022/01/24 06:03:37;;;;;;;26.25;14.90;;;;;;;4.61;89.57;100598.53;4866745;29;20078;-87
2022/01/24 06:06:02;;;;;;;26.65;13.48;;;;;;;4.44;89.51;100565.97;4882188;29;20092;-87
2022/01/24 06:08:28;;;;;;;27.25;15.13;;;;;;;4.64;89.58;100592.88;4866714;29;20537;-87
2022/01/24 06:10:58;;;;;;;27.55;14.15;;;;;;;4.64;89.69;100592.88;4866751;29;20028;-87
2022/01/24 06:13:30;;;;;;;26.50;14.73;;;;;;;4.62;89.86;100600.16;4882462;29;20028;-87
2022/01/24 06:15:56;;;;;;;27.25;15.30;;;;;;;4.61;89.43;100599.34;4866523;29;20044;-87
2022/01/24 06:18:25;;;;;;;25.05;13.95;;;;;;;4.59;89.88;100590.75;4866430;29;20522;-87
2022/01/24 06:20:50;;;;;;;28.63;14.02;;;;;;;4.60;89.94;100594.22;4897080;29;20035;-87
2022/01/24 06:23:17;;;;;;;27.05;15.35;;;;;;;4.62;89.95;100594.88;4881504;29;20020;-86
2022/01/24 06:25:43;;;;;;;23.65;13.43;;;;;;;4.61;89.41;100601.19;4882019;29;20039;-87
2022/01/24 06:28:09;;;;;;;27.27;15.15;;;;;;;4.60;89.48;100599.50;4866083;29;20061;-87
2022/01/24 06:30:34;;;;;;;29.85;16.20;;;;;;;4.61;89.92;100607.25;4897142;29;20032;-86
2022/01/24 06:33:00;;;;;;;28.90;16.52;;;;;;;4.60;89.68;100608.28;4866006;29;20115;-87
2022/01/24 06:35:25;;;;;;;30.40;16.08;;;;;;;4.42;90.28;100576.72;4882016;29;20103;-87
2022/01/24 06:37:50;;;;;;;28.83;15.93;;;;;;;4.63;89.50;100609.75;4881063;29;20036;-86
2022/01/24 06:40:16;;;;;;;28.98;16.25;;;;;;;4.63;89.92;100612.41;4881303;29;20032;-86
2022/01/24 06:42:41;;;;;;;31.05;15.48;;;;;;;4.16;89.38;100539.09;4881005;29;20020;-85
2022/01/24 06:45:09;;;;;;;31.02;16.98;;;;;;;4.60;89.61;100618.84;4896782;29;20480;-87
2022/01/24 06:47:35;;;;;;;30.15;16.52;;;;;;;4.61;89.62;100617.84;4881293;29;20084;-87
2022/01/24 06:50:00;;;;;;;32.38;16.70;;;;;;;4.62;90.00;100631.91;4865776;29;20032;-86
2022/01/24 06:52:26;;;;;;;29.70;17.02;;;;;;;4.63;89.75;100620.34;4881608;29;20116;-90
2022/01/24 06:54:51;;;;;;;32.10;17.05;;;;;;;4.64;89.60;100614.88;4882129;29;20084;-88
2022/01/24 06:57:17;;;;;;;29.65;15.30;;;;;;;4.63;89.30;100615.06;4865387;29;20032;-86
2022/01/24 06:59:44;;;;;;;29.00;15.77;;;;;;;4.61;89.60;100617.84;4880788;29;20033;-89
2022/01/24 07:02:11;;;;;;;33.72;16.67;;;;;;;4.63;89.70;100620.34;4880661;29;20024;-84
2022/01/24 07:04:41;;;;;;;28.67;15.68;;;;;;;4.61;89.33;100620.47;4881052;29;20066;-88
2022/01/24 07:07:08;;;;;;;31.38;16.70;;;;;;;4.62;89.69;100618.69;4896772;29;20092;-85
2022/01/24 07:09:34;;;;;;;35.15;16.98;;;;;;;4.63;89.83;100625.63;4865829;29;20040;-85
2022/01/24 07:11:59;;;;;;;27.25;15.25;;;;;;;4.62;89.63;100622.16;4881513;29;20024;-84
2022/01/24 07:14:25;;;;;;;30.67;15.77;;;;;;;4.50;89.54;100608.44;4878249;29;20393;-88
2022/01/24 07:19:26;;;;;;;30.05;16.92;;;;;;;4.59;89.53;100619.81;4848724;29;20119;-86
2022/01/24 07:21:54;;;;;;;29.17;17.05;;;;;;;4.61;90.14;100622.31;4846875;29;20029;-86
2022/01/24 07:24:20;;;;;;;34.60;17.65;;;;;;;4.61;89.82;100622.31;4862902;29;20048;-87
2022/01/24 07:26:45;;;;;;;33.67;19.05;;;;;;;4.60;89.11;100626.78;4864382;29;20033;-87
2022/01/24 07:29:11;;;;;;;33.33;18.08;;;;;;;4.60;90.07;100631.25;4868293;29;20040;-87
2022/01/24 07:31:36;;;;;;;33.50;17.75;;;;;;;4.59;89.48;100627.75;4868051;29;20025;-87
2022/01/24 07:34:02;;;;;;;31.95;16.70;;;;;;;4.13;89.85;100546.53;4852727;29;20476;-87
2022/01/24 07:36:27;;;;;;;29.90;16.08;;;;;;;4.60;89.86;100629.44;4868582;29;20036;-87
2022/01/24 07:38:52;;;;;;;33.60;17.92;;;;;;;4.60;89.29;100623.31;4868266;29;20077;-87
2022/01/24 07:41:25;;;;;;;34.92;17.98;;;;;;;4.60;89.85;100620.66;4852848;29;20056;-87
2022/01/24 07:43:51;;;;;;;38.42;17.20;;;;;;;4.61;90.20;100627.63;4867875;29;20045;-86
2022/01/24 07:46:17;;;;;;;36.30;18.65;;;;;;;4.08;89.42;100536.44;4883866;29;20064;-85
2022/01/24 07:48:43;;;;;;;34.55;17.50;;;;;;;4.62;89.57;100626.59;4887442;29;20060;-86
2022/01/24 07:51:08;;;;;;;33.28;18.35;;;;;;;4.63;89.68;100628.28;4883701;29;20028;-86
2022/01/24 07:53:34;;;;;;;33.08;17.80;;;;;;;4.64;89.74;100627.25;4884710;29;20033;-86
2022/01/24 07:55:59;;;;;;;30.92;18.00;;;;;;;4.62;89.49;100629.25;4883329;29;20471;-86
2022/01/24 07:58:24;;;;;;;34.28;18.35;;;;;;;4.56;89.70;100620.97;4883030;29;20029;-87
2022/01/24 08:00:50;;;;;;;36.65;18.85;;;;;;;4.61;89.82;100619.69;4870623;29;20046;-86
2022/01/24 08:03:16;;;;;;;31.25;16.70;;;;;;;4.46;89.88;100590.44;4886269;29;20040;-86
2022/01/24 08:05:42;;;;;;;33.10;17.67;;;;;;;4.63;89.58;100626.44;4869429;29;20118;-86
2022/01/24 08:08:07;;;;;;;34.63;18.77;;;;;;;4.65;89.90;100621.84;4886998;29;20484;-86
2022/01/24 08:10:33;;;;;;;33.40;17.08;;;;;;;4.65;89.59;100631.56;4869358;29;20128;-86
2022/01/24 08:12:59;;;;;;;30.83;16.92;;;;;;;4.67;90.48;100630.44;4886220;29;20024;-87
2022/01/24 08:15:25;;;;;;;31.65;18.70;;;;;;;4.66;90.09;100625.28;4901349;29;20469;-86
2022/01/24 08:17:51;;;;;;;33.53;18.63;;;;;;;4.67;89.65;100629.59;4884293;29;20506;-86
2022/01/24 08:20:17;;;;;;;38.92;20.67;;;;;;;4.65;90.50;100618.34;4882092;29;20039;-86
2022/01/24 08:22:43;;;;;;;37.00;20.05;;;;;;;4.71;90.36;100625.63;4867508;29;20383;-86
2022/01/24 08:25:10;;;;;;;32.38;17.83;;;;;;;4.42;89.94;100578.53;4897798;29;20029;-86
2022/01/24 08:27:36;;;;;;;38.67;19.05;;;;;;;4.71;89.92;100630.91;4886327;29;20063;-86
2022/01/24 08:30:05;;;;;;;35.90;19.77;;;;;;;4.37;89.53;100568.47;4877363;29;20051;-86
2022/01/24 08:32:30;;;;;;;34.78;19.02;;;;;;;4.63;89.81;100599.19;4882465;29;20047;-86
2022/01/24 08:34:56;;;;;;;35.53;20.70;;;;;;;4.76;89.36;100616.16;4851921;29;20048;-86
2022/01/24 08:37:22;;;;;;;39.92;20.75;;;;;;;4.69;89.64;100609.09;4852138;29;20124;-86
2022/01/24 08:39:48;;;;;;;36.33;19.83;;;;;;;4.78;89.36;100624.78;4867325;29;20553;-86
2022/01/24 08:47:05;;;;;;;34.83;18.70;;;;;;;4.83;89.74;100624.25;4882152;29;20043;-86
2022/01/24 08:49:31;;;;;;;34.45;17.92;;;;;;;4.67;89.55;100598.69;4873642;29;20088;-86
2022/01/24 08:51:58;;;;;;;35.00;19.05;;;;;;;4.84;89.83;100623.28;4881770;29;20066;-86
2022/01/24 08:54:24;;;;;;;37.38;18.80;;;;;;;4.72;89.53;100600.84;4881946;29;20029;-88
2022/01/24 08:56:49;;;;;;;35.95;18.98;;;;;;;4.85;89.94;100625.75;4881916;29;20032;-89
2022/01/24 08:59:14;;;;;;;32.67;18.52;;;;;;;4.88;90.23;100624.59;4853803;29;20069;-86
2022/01/24 09:01:40;;;;;;;40.90;21.33;;;;;;;4.84;89.79;100628.56;4868607;29;20028;-86
2022/01/24 09:04:05;;;;;;;32.95;17.80;;;;;;;4.88;89.47;100629.88;4882913;29;20108;-86
2022/01/24 09:06:31;;;;;;;36.10;18.73;;;;;;;4.89;89.51;100629.69;4869362;29;20505;-86
2022/01/24 09:09:03;;;;;;;38.80;20.33;;;;;;;4.90;89.16;100626.06;4869662;29;20033;-86
2022/01/24 09:11:31;;;;;;;42.75;20.35;;;;;;;4.78;89.76;100611.56;4882413;29;20061;-86
2022/01/24 09:13:57;;;;;;;41.67;20.38;;;;;;;4.71;89.74;100600.00;4880774;29;20068;-86
2022/01/24 09:16:24;;;;;;;37.38;19.95;;;;;;;4.91;89.52;100622.44;4876698;29;20470;-86
2022/01/24 09:18:50;;;;;;;38.70;19.17;;;;;;;4.90;90.42;100620.78;4885138;29;20462;-86
2022/01/24 09:21:16;;;;;;;32.38;18.00;;;;;;;4.92;89.60;100632.03;4869040;29;20036;-86
2022/01/24 09:23:41;;;;;;;33.90;18.23;;;;;;;4.89;90.33;100626.25;4881778;29;20029;-86
2022/01/24 09:26:07;;;;;;;32.55;17.80;;;;;;;4.93;89.85;100627.56;4878924;29;20044;-86
2022/01/24 09:28:32;;;;;;;33.65;18.15;;;;;;;4.95;90.14;100615.00;4881106;29;20102;-86
2022/01/24 09:30:58;;;;;;;33.03;17.88;;;;;;;4.95;90.10;100613.19;4885749;29;20033;-87
2022/01/24 09:33:25;;;;;;;32.05;16.15;;;;;;;4.96;89.43;100613.97;4884947;29;20028;-86
2022/01/24 09:35:52;;;;;;;31.92;16.20;;;;;;;4.91;89.99;100605.75;4885287;29;20084;-86
2022/01/24 09:38:17;;;;;;;25.35;13.65;;;;;;;4.97;90.39;100615.66;4865034;29;20052;-87
2022/01/24 09:40:43;;;;;;;24.33;13.90;;;;;;;4.97;89.35;100615.66;4866380;29;20033;-87
2022/01/24 09:43:09;;;;;;;19.75;11.05;;;;;;;4.79;89.56;100588.56;4867676;29;20107;-87
2022/01/24 09:45:36;;;;;;;20.08;11.38;;;;;;;4.98;89.75;100617.31;4882811;29;20072;-87
2022/01/24 09:48:03;;;;;;;24.70;12.82;;;;;;;4.99;89.59;100617.13;4883590;29;20482;-87
2022/01/24 09:50:29;;;;;;;22.52;12.43;;;;;;;5.01;89.55;100617.78;4886576;29;20032;-86
2022/01/24 09:52:55;;;;;;;16.75;9.15;;;;;;;5.03;89.97;100620.25;4870095;29;20383;-87
2022/01/24 09:55:22;;;;;;;16.00;7.15;;;;;;;4.47;89.62;100524.19;4875090;29;20027;-86
2022/01/24 09:57:48;;;;;;;15.43;7.60;;;;;;;4.95;89.96;100601.75;4902469;29;20035;-86
2022/01/24 10:00:18;;;;;;;8.73;5.13;;;;;;;5.02;89.34;100616.78;4884025;29;20033;-87
2022/01/24 10:02:46;;;;;;;8.90;4.82;;;;;;;4.96;89.47;100603.41;4869366;29;20029;-86
2022/01/24 10:05:14;;;;;;;7.97;5.22;;;;;;;5.02;88.74;100611.47;4860762;29;20052;-87
2022/01/24 10:07:41;;;;;;;7.65;4.60;;;;;;;4.56;89.30;100538.22;4878733;29;20128;-86
2022/01/24 10:10:06;;;;;;;6.82;4.30;;;;;;;5.03;88.85;100607.84;4870326;29;20037;-86
2022/01/24 10:18:09;;;;;;;4.60;3.15;;;;;;;5.04;88.72;100612.16;4889532;29;20119;-86
2022/01/24 10:20:41;;;;;;;3.30;2.67;;;;;;;5.03;88.98;100615.78;4883413;29;20064;-86
2022/01/24 10:23:12;;;;;;;3.72;3.10;;;;;;;5.03;88.05;100621.09;4852256;29;20036;-86
2022/01/24 10:26:03;;;;;;;3.00;2.53;;;;;;;5.04;88.39;100617.47;4868009;29;20033;-86
2022/01/24 10:28:30;;;;;;;3.28;2.55;;;;;;;5.06;88.25;100612.00;4867354;29;20048;-86
2022/01/24 10:31:10;;;;;;;2.88;2.20;;;;;;;5.05;88.52;100612.97;4868927;29;20076;-86
2022/01/24 10:33:58;;;;;;;3.47;2.47;;;;;;;5.04;88.69;100614.81;4886800;29;20037;-86
2022/01/24 10:36:41;;;;;;;2.65;2.10;;;;;;;5.07;87.95;100609.16;4885605;29;20039;-86
2022/01/24 10:39:33;;;;;;;3.08;2.38;;;;;;;5.04;88.41;100606.88;4908721;29;20064;-87
2022/01/24 10:45:20;;;;;;;2.47;2.17;;;;;;;4.96;87.85;100598.09;4877600;29;20033;-87
2022/01/24 10:47:49;;;;;;;1.73;1.60;;;;;;;5.06;88.68;100615.47;4884398;29;20140;-86
2022/01/24 10:50:22;;;;;;;2.90;2.10;;;;;;;4.90;88.37;100582.91;4873705;29;20088;-86
2022/01/24 10:52:47;;;;;;;2.08;1.55;;;;;;;5.11;88.28;100612.31;4870985;29;20127;-87
2022/01/24 10:55:21;;;;;;;2.65;2.00;;;;;;;5.11;88.30;100599.88;4880430;29;20037;-86
2022/01/24 10:57:50;;;;;;;3.90;2.20;;;;;;;5.11;88.44;100604.38;4881295;29;20123;-86
2022/01/24 11:00:28;;;;;;;2.30;2.05;;;;;;;5.13;88.43;100610.31;4880785;29;20029;-86
2022/01/24 11:02:59;;;;;;;3.80;2.63;;;;;;;5.13;88.41;100615.63;4880164;29;20405;-86
2022/01/24 11:05:28;;;;;;;2.53;2.33;;;;;;;5.12;88.36;100608.66;4865478;29;20043;-86
2022/01/24 11:08:06;;;;;;;3.03;2.72;;;;;;;5.11;88.66;100609.66;4881194;29;20056;-86
2022/01/24 11:10:34;;;;;;;2.83;2.17;;;;;;;5.11;88.54;100607.81;4865183;29;20491;-86
2022/01/24 11:13:02;;;;;;;2.42;2.15;;;;;;;5.13;88.25;100603.19;4880438;29;20043;-86
2022/01/24 11:15:27;;;;;;;3.47;2.40;;;;;;;5.16;88.16;100596.72;4865537;29;20037;-86
2022/01/24 11:17:53;;;;;;;2.85;2.17;;;;;;;5.15;88.13;100605.69;4880861;29;20055;-86
2022/01/24 11:20:21;;;;;;;2.72;2.13;;;;;;;5.16;88.41;100599.38;4865366;29;20067;-86
2022/01/24 11:22:58;;;;;;;2.60;2.28;;;;;;;5.01;88.04;100585.19;4865439;29;20029;-86
2022/01/24 11:25:25;;;;;;;2.65;2.20;;;;;;;5.16;88.04;100588.78;4866130;29;20037;-87
2022/01/24 11:27:50;;;;;;;2.75;2.00;;;;;;;4.94;87.69;100555.94;4880645;29;20486;-86
2022/01/24 11:30:22;;;;;;;2.72;2.38;;;;;;;5.16;88.22;100588.78;4879103;29;20092;-86
2022/01/24 11:32:58;;;;;;;3.20;2.10;;;;;;;5.17;88.50;100587.81;4878664;29;20025;-86
2022/01/24 11:35:50;;;;;;;2.85;2.17;;;;;;;5.17;88.31;100586.00;4863945;29;20028;-86
2022/01/24 11:38:37;;;;;;;2.03;1.88;;;;;;;5.14;87.83;100583.69;4880939;29;20037;-88
2022/01/24 11:41:20;;;;;;;2.25;2.05;;;;;;;5.16;87.72;100591.44;4897326;29;20032;-88
2022/01/24 11:43:49;;;;;;;1.52;1.40;;;;;;;5.17;87.94;100590.47;4863133;29;20747;-87
2022/01/24 11:46:35;;;;;;;1.83;1.70;;;;;;;4.99;87.98;100563.38;4856631;29;20108;-87
2022/01/24 11:49:17;;;;;;;1.95;1.63;;;;;;;5.15;87.88;100589.81;4879760;29;20025;-87
2022/01/24 11:51:47;;;;;;;2.53;2.10;;;;;;;5.15;87.96;100585.34;4882300;29;20064;-87
2022/01/24 11:54:42;;;;;;;2.33;2.13;;;;;;;5.14;87.55;100580.19;4878196;29;20028;-86
2022/01/24 11:57:29;;;;;;;3.63;1.73;;;;;;;5.13;87.46;100583.84;4890715;29;20028;-90
2022/01/24 12:00:01;;;;;;;2.20;1.98;;;;;;;5.13;87.46;100581.22;4882742;29;20449;-87
2022/01/24 12:02:30;;;;;;;2.03;1.92;;;;;;;5.15;87.54;100581.88;4876683;29;20035;-88
2022/01/24 12:05:08;;;;;;;2.22;2.03;;;;;;;5.15;87.64;100574.75;4880255;29;20044;-88
2022/01/24 12:07:50;;;;;;;2.15;2.00;;;;;;;5.15;87.36;100571.28;4876515;29;20037;-88
2022/01/24 12:10:25;;;;;;;2.03;1.83;;;;;;;5.15;88.25;100563.34;4866703;29;20028;-88
2022/01/24 12:13:00;;;;;;;2.20;2.00;;;;;;;5.14;87.54;100559.84;4871658;29;20390;-88
2022/01/24 12:15:38;;;;;;;3.15;2.58;;;;;;;5.14;86.86;100557.22;4874834;29;20464;-87
2022/01/24 12:18:08;;;;;;;3.00;2.80;;;;;;;5.14;87.59;100551.09;4877409;29;20478;-86
2022/01/24 12:20:37;;;;;;;2.13;2.03;;;;;;;5.13;87.48;100557.41;4892495;29;20439;-88
2022/01/24 12:23:19;;;;;;;4.30;2.70;;;;;;;5.11;87.58;100557.53;4888083;29;20036;-88
2022/01/24 12:25:57;;;;;;;3.72;2.65;;;;;;;5.06;87.53;100546.66;4887586;29;20074;-88
2022/01/24 12:28:32;;;;;;;3.50;2.80;;;;;;;5.14;86.97;100559.03;4873043;29;20071;-88
2022/01/24 12:31:03;;;;;;;3.28;2.97;;;;;;;5.15;87.49;100558.03;4873551;29;20163;-88
2022/01/24 12:33:32;;;;;;;2.90;2.70;;;;;;;5.15;87.86;100550.09;4886603;29;20029;-88
2022/01/24 12:35:58;;;;;;;2.55;2.35;;;;;;;5.08;88.12;100538.56;4876812;29;20039;-89
2022/01/24 12:38:23;;;;;;;3.92;3.00;;;;;;;5.05;87.32;100544.16;4875206;29;20092;-87
2022/01/24 12:41:09;;;;;;;3.40;3.00;;;;;;;5.14;87.87;100559.84;4893747;29;20025;-88
2022/01/24 12:43:51;;;;;;;3.33;3.03;;;;;;;5.15;87.82;100556.22;4864778;29;20073;-88
2022/01/24 12:46:21;;;;;;;3.38;3.08;;;;;;;5.13;87.78;100558.19;4869067;29;20431;-87
2022/01/24 12:48:48;;;;;;;3.45;3.15;;;;;;;5.14;88.23;100559.03;4865182;29;20049;-88
2022/01/24 12:51:16;;;;;;;3.83;3.42;;;;;;;5.15;88.14;100564.16;4866432;29;20112;-85
2022/01/24 12:53:42;;;;;;;4.20;3.78;;;;;;;5.15;87.38;100550.09;4866686;29;20035;-85
2022/01/24 12:56:11;;;;;;;5.22;4.40;;;;;;;5.01;88.00;100527.81;4884606;29;20549;-84
2022/01/24 12:58:39;;;;;;;4.40;4.00;;;;;;;5.14;88.28;100541.34;4892792;29;20153;-86
2022/01/24 13:01:27;;;;;;;4.82;4.30;;;;;;;5.11;88.29;100543.50;4879366;29;20028;-88
2022/01/24 13:03:58;;;;;;;8.45;6.15;;;;;;;5.17;88.24;100548.09;4885700;29;20036;-88
2022/01/24 13:06:26;;;;;;;9.23;6.32;;;;;;;5.16;87.96;100552.56;4852684;29;20029;-88
2022/01/24 13:08:56;;;;;;;12.73;7.65;;;;;;;5.17;87.78;100543.66;4875513;29;20033;-88
2022/01/24 13:11:22;;;;;;;15.00;8.90;;;;;;;5.17;88.07;100540.16;4878565;29;20120;-89
2022/01/24 13:22:26;;;;;;;11.10;8.05;;;;;;;5.04;87.98;100518.72;4887323;29;20049;-88
2022/01/24 13:25:36;;;;;;;11.43;8.05;;;;;;;5.03;88.14;100519.72;4866612;29;20127;-86
2022/01/24 13:28:17;;;;;;;10.70;8.13;;;;;;;5.09;87.73;100527.78;4829796;29;20562;-87
2022/01/24 13:30:45;;;;;;;10.88;8.23;;;;;;;5.13;87.46;100523.78;4867218;29;20100;-86
2022/01/24 13:33:13;;;;;;;10.02;8.60;;;;;;;5.11;87.63;100536.38;4882091;29;20115;-86
2022/01/24 13:35:51;;;;;;;9.38;7.60;;;;;;;5.11;88.09;100535.56;4882967;29;20513;-84
2022/01/24 13:38:24;;;;;;;11.73;7.90;;;;;;;5.13;87.56;100537.03;4882993;29;20518;-85
2022/01/24 13:40:55;;;;;;;8.75;7.28;;;;;;;5.15;87.78;100534.22;4882869;29;20036;-85
2022/01/24 13:43:53;;;;;;;10.13;7.28;;;;;;;5.12;87.34;100537.19;4882335;29;20060;-87
2022/01/24 13:46:22;;;;;;;10.95;8.07;;;;;;;5.12;88.13;100530.09;4882726;29;20557;-87
2022/01/24 13:48:56;;;;;;;8.75;7.10;;;;;;;5.11;87.52;100533.72;4883311;29;20513;-85
2022/01/24 13:51:25;;;;;;;9.32;8.23;;;;;;;5.10;88.48;100533.91;4885444;29;20103;-85
2022/01/24 13:53:57;;;;;;;9.43;7.57;;;;;;;5.09;87.39;100534.88;4886903;29;20048;-85
2022/01/24 13:56:45;;;;;;;10.98;7.60;;;;;;;5.10;87.97;100537.38;4888419;29;20037;-86
2022/01/24 13:59:16;;;;;;;9.57;8.32;;;;;;;5.12;87.56;100537.19;4897261;29;20036;-85
2022/01/24 14:01:59;;;;;;;9.63;7.82;;;;;;;5.08;87.76;100538.56;4876375;29;20025;-86
2022/01/24 14:04:34;;;;;;;8.45;7.28;;;;;;;5.12;88.07;100543.31;4881179;29;20036;-86
2022/01/24 14:07:09;;;;;;;10.55;8.75;;;;;;;5.06;88.61;100528.16;4874421;29;20060;-86
2022/01/24 14:09:46;;;;;;;10.00;8.20;;;;;;;5.14;87.65;100541.34;4866597;29;20501;-86
2022/01/24 14:12:19;;;;;;;10.73;8.07;;;;;;;4.95;87.94;100512.66;4897987;29;20120;-86
2022/01/24 16:57:34;;;;;;;12.07;8.95;;;;;;;4.34;87.18;100460.44;4920882;29;20050;-86
2022/01/24 16:59:59;;;;;;;12.95;8.82;;;;;;;4.67;87.20;100518.53;4898274;29;20025;-86
2022/01/24 17:02:24;;;;;;;10.75;9.18;;;;;;;4.62;86.77;100512.91;4898136;29;20207;-86
2022/01/24 17:04:50;;;;;;;13.35;9.88;;;;;;;4.75;87.64;100534.34;4906564;29;20473;-86